Time;durP1;ratioP1;P1;durP2;ratioP2;P2;SDS_P1;SDS_P2;PMS_P1;PMS_P2;Temp;Humidity;BMP_temperature;BMP_pressure;BME280_temperature;BME280_humidity;BME280_pressure;Samples;Min_cycle;Max_cycle;Signal;HPM_P1;HPM_P2
2021/11/27 00:01:53;;;;;;;11.23;5.53;;;;;;;11.86;53.30;98470.66;5056700;28;20170;-68
2021/11/27 00:04:18;;;;;;;10.77;5.60;;;;;;;12.24;52.43;98464.28;5072848;28;20184;-70
2021/11/27 00:06:44;;;;;;;12.07;5.27;;;;;;;12.07;52.04;98452.56;5055848;28;20214;-69
2021/11/27 00:09:10;;;;;;;9.70;4.77;;;;;;;11.43;53.39;98455.97;5055997;28;20171;-69
2021/11/27 00:11:36;;;;;;;8.37;4.60;;;;;;;11.61;53.86;98453.41;5073973;28;20276;-70
2021/11/27 00:14:01;;;;;;;9.70;4.87;;;;;;;11.92;52.98;98455.88;5072748;28;20216;-69
2021/11/27 00:16:27;;;;;;;9.37;4.17;;;;;;;11.80;52.00;98448.03;5055880;28;20586;-70
2021/11/27 00:18:52;;;;;;;6.63;4.27;;;;;;;11.02;54.18;98448.31;5072635;28;20647;-69
2021/11/27 00:21:21;;;;;;;10.20;5.17;;;;;;;10.96;54.83;98450.56;5072542;28;20658;-68
2021/11/27 00:23:48;;;;;;;7.40;4.23;;;;;;;10.99;54.85;98448.59;5072552;28;20177;-68
2021/11/27 00:26:14;;;;;;;10.13;5.37;;;;;;;11.77;52.62;98445.63;5072470;28;20176;-69
2021/11/27 00:28:39;;;;;;;13.37;5.27;;;;;;;10.74;54.51;98447.31;5072371;28;20686;-68
2021/11/27 00:31:11;;;;;;;9.63;5.73;;;;;;;11.00;55.41;98460.94;5072457;28;20201;-68
2021/11/27 00:33:36;;;;;;;11.17;5.50;;;;;;;11.44;53.13;98443.47;5072533;28;20544;-69
2021/11/27 00:36:02;;;;;;;9.50;4.87;;;;;;;11.80;53.08;98440.00;5072341;28;20172;-69
2021/11/27 00:38:28;;;;;;;11.53;5.70;;;;;;;11.39;54.26;98449.25;5073584;28;20198;-69
2021/11/27 00:40:53;;;;;;;14.00;6.10;;;;;;;11.97;52.56;98442.91;5055470;28;20184;-68
2021/11/27 00:43:19;;;;;;;11.40;6.00;;;;;;;11.91;53.47;98444.34;5072084;28;20183;-69
2021/11/27 00:45:47;;;;;;;8.80;5.90;;;;;;;12.41;52.85;98435.91;5071973;28;20642;-69
2021/11/27 00:48:13;;;;;;;14.20;6.77;;;;;;;12.08;52.86;98440.03;5071997;28;20196;-70
2021/11/27 00:50:51;;;;;;;17.00;6.63;;;;;;;12.06;52.78;98437.50;5071914;28;20197;-68
2021/11/27 00:53:18;;;;;;;13.53;6.37;;;;;;;10.68;55.32;98440.72;5073254;28;20552;-68
2021/11/27 00:55:43;;;;;;;13.50;6.33;;;;;;;10.61;55.96;98445.78;5072084;28;20176;-69
2021/11/27 00:58:09;;;;;;;12.00;6.83;;;;;;;11.00;55.06;98436.94;5071972;28;20223;-68
2021/11/27 01:00:39;;;;;;;16.27;7.13;;;;;;;11.74;54.35;98439.72;5072001;28;20175;-68
2021/11/27 01:03:06;;;;;;;11.43;7.20;;;;;;;10.78;55.00;98438.94;5071886;28;20170;-69
2021/11/27 01:05:33;;;;;;;11.47;6.43;;;;;;;11.03;55.28;98448.16;5055082;28;20186;-68
2021/11/27 01:07:58;;;;;;;11.80;7.10;;;;;;;11.14;55.35;98448.00;5071557;28;20253;-69
2021/11/27 01:10:26;;;;;;;39.27;9.13;;;;;;;11.19;55.89;98452.94;5054883;28;20208;-68
2021/11/27 01:12:52;;;;;;;13.23;7.00;;;;;;;10.95;55.72;98445.38;5054980;28;20176;-69
2021/11/27 01:15:21;;;;;;;13.03;7.30;;;;;;;12.29;53.18;98456.69;5071846;28;20660;-69
2021/11/27 01:17:46;;;;;;;14.63;7.80;;;;;;;12.02;52.97;98452.16;5054935;28;20295;-69
2021/11/27 01:20:15;;;;;;;15.17;7.23;;;;;;;12.37;53.25;98455.94;5054885;28;20256;-68
2021/11/27 01:22:41;;;;;;;16.10;8.03;;;;;;;11.38;54.71;98452.91;5071623;28;20564;-67
2021/11/27 01:25:08;;;;;;;15.47;6.80;;;;;;;12.32;53.01;98447.50;5073028;28;20181;-69
2021/11/27 01:27:34;;;;;;;13.40;6.83;;;;;;;11.39;54.68;98441.22;5071905;28;20192;-69
2021/11/27 01:30:00;;;;;;;14.67;7.97;;;;;;;10.83;56.07;98446.50;5055270;28;20182;-69
2021/11/27 01:32:25;;;;;;;19.00;7.93;;;;;;;10.81;56.33;98449.31;5071637;28;20254;-70
2021/11/27 01:34:50;;;;;;;12.77;7.63;;;;;;;10.56;57.23;98444.50;5071938;28;20609;-68
2021/11/27 01:37:16;;;;;;;13.70;7.63;;;;;;;11.02;55.78;98440.31;5076437;28;20273;-69
2021/11/27 01:39:42;;;;;;;11.83;7.40;;;;;;;11.92;54.50;98439.84;5080025;28;20196;-69
2021/11/27 01:42:08;;;;;;;11.07;7.97;;;;;;;11.64;55.14;98441.59;5079415;28;20174;-67
2021/11/27 01:44:34;;;;;;;14.20;7.87;;;;;;;10.16;58.05;98455.22;5082760;28;20179;-69
2021/11/27 01:47:00;;;;;;;19.37;8.87;;;;;;;11.67;54.70;98438.63;5083353;28;20537;-69
2021/11/27 01:49:26;;;;;;;17.80;8.17;;;;;;;9.88;57.96;98438.97;5078561;28;20224;-67
2021/11/27 01:51:52;;;;;;;13.13;8.13;;;;;;;10.58;57.44;98443.38;5061068;28;20205;-69
2021/11/27 01:54:17;;;;;;;17.43;8.57;;;;;;;9.85;57.48;98433.91;5060214;28;20173;-68
2021/11/27 01:56:47;;;;;;;19.40;8.67;;;;;;;9.94;58.77;98430.44;5058915;28;20205;-68
2021/11/27 01:59:13;;;;;;;20.60;8.70;;;;;;;10.82;57.05;98428.81;5054509;28;20525;-68
2021/11/27 02:01:39;;;;;;;14.67;7.80;;;;;;;12.39;53.70;98432.53;5071926;28;20172;-67
2021/11/27 02:04:06;;;;;;;14.60;8.33;;;;;;;11.53;55.30;98422.09;5074995;28;20177;-68
2021/11/27 02:06:32;;;;;;;14.83;8.47;;;;;;;11.27;55.63;98423.69;5076000;28;20174;-68
2021/11/27 02:08:58;;;;;;;14.30;8.10;;;;;;;11.30;56.38;98430.56;5074975;28;20698;-69
2021/11/27 02:11:26;;;;;;;13.73;8.50;;;;;;;11.00;56.59;98415.59;5074876;28;20552;-68
2021/11/27 02:13:52;;;;;;;15.10;8.57;;;;;;;11.46;55.73;98417.44;5074990;28;20173;-68
2021/11/27 02:16:18;;;;;;;13.33;7.87;;;;;;;11.34;55.07;98408.78;5075112;28;20178;-69
2021/11/27 02:18:43;;;;;;;16.40;8.70;;;;;;;10.63;57.45;98413.63;5074827;28;20258;-68
2021/11/27 02:21:11;;;;;;;15.00;8.00;;;;;;;10.35;57.87;98423.28;5075202;28;20177;-68
2021/11/27 02:23:37;;;;;;;21.80;9.93;;;;;;;11.94;54.33;98417.31;5074799;28;20196;-69
2021/11/27 02:26:05;;;;;;;18.57;8.93;;;;;;;12.31;54.25;98416.41;5074746;28;20176;-68
2021/11/27 02:28:31;;;;;;;12.27;8.23;;;;;;;12.25;54.30;98411.63;5074792;28;20193;-68
2021/11/27 02:30:57;;;;;;;15.90;8.33;;;;;;;12.19;54.05;98415.75;5057793;28;20229;-69
2021/11/27 02:33:22;;;;;;;18.10;8.83;;;;;;;12.49;53.80;98414.59;5074992;28;20639;-68
2021/11/27 02:35:48;;;;;;;20.13;8.87;;;;;;;12.04;54.57;98406.56;5074565;28;20213;-68
2021/11/27 02:38:13;;;;;;;13.70;8.97;;;;;;;11.93;54.98;98409.44;5074908;28;20267;-68
2021/11/27 02:40:39;;;;;;;17.00;8.57;;;;;;;12.21;54.09;98413.78;5074299;28;20548;-68
2021/11/27 02:43:05;;;;;;;16.03;8.97;;;;;;;12.07;54.25;98412.47;5057831;28;20167;-68
2021/11/27 02:45:30;;;;;;;18.67;9.27;;;;;;;11.68;55.61;98416.25;5057754;28;20168;-69
2021/11/27 02:47:55;;;;;;;21.17;9.77;;;;;;;10.61;57.34;98407.59;5074394;28;20678;-69
2021/11/27 02:50:21;;;;;;;15.87;9.63;;;;;;;11.51;55.73;98405.34;5074600;28;20180;-67
2021/11/27 02:52:46;;;;;;;17.00;9.77;;;;;;;11.63;55.14;98402.50;5074493;28;20212;-69
2021/11/27 02:55:11;;;;;;;17.13;10.17;;;;;;;12.13;54.08;98400.31;5075878;28;20170;-68
2021/11/27 02:57:37;;;;;;;17.43;9.43;;;;;;;11.40;54.63;98391.31;5074537;28;20272;-69
2021/11/27 03:00:10;;;;;;;20.53;9.10;;;;;;;9.82;59.77;98414.69;5075308;28;20164;-69
2021/11/27 03:02:36;;;;;;;17.17;9.77;;;;;;;11.62;55.16;98401.66;5075337;28;20164;-69
2021/11/27 03:05:02;;;;;;;17.07;9.37;;;;;;;12.14;54.05;98402.00;5058167;28;20201;-69
2021/11/27 03:07:27;;;;;;;16.83;9.90;;;;;;;12.03;54.12;98397.72;5092162;22;20281;-67
2021/11/27 03:09:52;;;;;;;13.03;8.47;;;;;;;11.16;55.41;98397.16;5116446;28;20174;-68
2021/11/27 03:12:19;;;;;;;16.53;8.83;;;;;;;12.21;53.90;98403.06;5116108;28;20195;-68
2021/11/27 03:14:44;;;;;;;14.80;9.57;;;;;;;12.04;54.25;98396.72;5117683;28;20173;-67
2021/11/27 03:17:10;;;;;;;19.33;9.67;;;;;;;12.33;53.40;98390.34;5117607;28;20228;-68
2021/11/27 03:19:38;;;;;;;13.93;8.67;;;;;;;11.87;54.57;98400.16;5117063;28;20171;-68
2021/11/27 03:22:03;;;;;;;15.97;9.00;;;;;;;11.53;54.18;98386.53;5116756;28;20223;-68
2021/11/27 03:24:29;;;;;;;18.33;9.23;;;;;;;11.52;55.25;98398.16;5116797;28;20515;-68
2021/11/27 03:26:55;;;;;;;16.83;8.80;;;;;;;11.36;56.03;98403.28;5116557;28;20177;-68
2021/11/27 03:29:20;;;;;;;14.47;8.87;;;;;;;10.65;56.32;98396.50;5117261;28;20195;-68
2021/11/27 03:31:45;;;;;;;17.33;8.87;;;;;;;11.44;54.56;98404.25;5116801;28;20197;-68
2021/11/27 03:34:11;;;;;;;16.83;9.13;;;;;;;11.91;53.67;98400.75;5116073;28;20628;-68
2021/11/27 03:36:36;;;;;;;14.60;8.70;;;;;;;11.64;54.51;98399.69;5115913;28;20227;-68
2021/11/27 03:39:03;;;;;;;14.43;8.97;;;;;;;10.64;56.81;98409.97;5116101;28;20223;-68
2021/11/27 03:41:29;;;;;;;15.03;9.17;;;;;;;11.10;55.91;98406.56;5115699;28;20175;-68
2021/11/27 03:43:54;;;;;;;15.63;9.13;;;;;;;11.24;55.68;98400.78;5116014;28;20181;-69
2021/11/27 03:46:19;;;;;;;15.97;9.47;;;;;;;10.73;56.21;98402.94;5116518;28;20177;-69
2021/11/27 03:48:45;;;;;;;15.93;9.43;;;;;;;11.41;54.61;98406.38;5097241;28;20756;-69
2021/11/27 03:51:13;;;;;;;18.77;9.90;;;;;;;11.62;54.37;98403.50;5116502;28;20214;-69
2021/11/27 03:53:40;;;;;;;19.57;9.83;;;;;;;10.28;57.73;98412.31;5115274;28;20162;-69
2021/11/27 03:56:08;;;;;;;18.47;9.97;;;;;;;11.24;55.54;98411.47;5115633;28;20590;-67
2021/11/27 03:58:34;;;;;;;17.83;9.77;;;;;;;10.84;56.21;98411.69;5115718;28;20234;-68
2021/11/27 04:01:01;;;;;;;16.70;9.90;;;;;;;11.40;55.01;98410.03;5113802;28;20539;-68
2021/11/27 04:03:26;;;;;;;15.33;10.27;;;;;;;11.41;54.84;98409.88;5114362;28;20226;-68
2021/11/27 04:05:54;;;;;;;15.13;9.57;;;;;;;11.15;56.04;98417.69;5114395;28;20172;-68
2021/11/27 04:08:20;;;;;;;20.00;10.37;;;;;;;10.76;56.31;98413.34;5113895;28;20255;-68
2021/11/27 04:10:45;;;;;;;19.17;11.17;;;;;;;10.17;56.69;98409.75;5113532;28;20195;-68
2021/11/27 04:13:11;;;;;;;21.63;10.60;;;;;;;9.25;59.31;98424.09;5115021;28;20175;-68
2021/11/27 04:15:36;;;;;;;17.63;10.03;;;;;;;10.21;57.39;98423.69;5114652;28;20166;-68
2021/11/27 04:18:02;;;;;;;21.53;11.33;;;;;;;10.62;56.63;98407.44;5113428;28;20228;-68
2021/11/27 04:20:28;;;;;;;18.50;9.90;;;;;;;11.03;55.50;98418.81;5115021;28;20176;-69
2021/11/27 04:22:53;;;;;;;17.30;9.80;;;;;;;10.11;56.24;98423.63;5114981;28;20551;-69
2021/11/27 04:25:19;;;;;;;17.20;10.00;;;;;;;10.49;56.12;98414.88;5096554;28;20647;-69
2021/11/27 04:27:44;;;;;;;19.30;10.43;;;;;;;10.75;55.52;98420.50;5113317;28;20187;-68
2021/11/27 04:30:14;;;;;;;17.90;9.73;;;;;;;10.46;56.38;98427.66;5113799;28;20173;-68
2021/11/27 04:32:39;;;;;;;20.67;10.50;;;;;;;10.10;56.78;98429.94;5113453;28;20224;-68
2021/11/27 04:35:05;;;;;;;21.27;11.40;;;;;;;9.67;57.76;98428.41;5116544;28;20166;-68
2021/11/27 04:37:30;;;;;;;18.57;11.37;;;;;;;10.06;57.30;98428.53;5115049;28;20195;-68
2021/11/27 04:39:56;;;;;;;20.50;10.37;;;;;;;10.48;55.63;98420.38;5114628;28;20170;-68
2021/11/27 04:42:21;;;;;;;18.70;11.23;;;;;;;10.14;56.27;98418.03;5113078;28;20176;-68
2021/11/27 04:44:47;;;;;;;21.27;11.00;;;;;;;9.55;57.72;98423.28;5115331;28;20169;-67
2021/11/27 04:47:12;;;;;;;18.60;10.87;;;;;;;9.90;57.24;98423.69;5113763;28;20197;-69
2021/11/27 04:49:38;;;;;;;20.33;11.00;;;;;;;9.36;58.27;98429.34;5116482;28;20248;-67
2021/11/27 04:52:03;;;;;;;18.17;10.63;;;;;;;10.05;56.99;98421.53;5114263;28;20220;-68
2021/11/27 04:54:29;;;;;;;20.20;11.10;;;;;;;10.69;55.82;98417.56;5114170;28;20177;-67
2021/11/27 04:56:54;;;;;;;18.13;11.07;;;;;;;9.44;57.56;98436.69;5114427;28;20179;-67
2021/11/27 04:59:21;;;;;;;16.60;10.70;;;;;;;9.97;57.56;98442.66;5114573;28;20639;-68
2021/11/27 05:01:47;;;;;;;22.57;12.00;;;;;;;9.93;57.47;98431.41;5115047;28;20166;-68
2021/11/27 05:04:13;;;;;;;20.47;11.73;;;;;;;9.67;57.32;98431.06;5115112;28;20207;-68
2021/11/27 05:06:38;;;;;;;23.07;12.00;;;;;;;9.38;58.24;98435.38;5115411;28;20606;-68
2021/11/27 05:09:03;;;;;;;18.93;11.20;;;;;;;9.14;58.09;98434.81;5112461;28;20226;-68
2021/11/27 05:11:28;;;;;;;19.63;11.03;;;;;;;9.53;58.55;98433.22;5112541;28;20194;-68
2021/11/27 05:13:54;;;;;;;21.93;11.70;;;;;;;9.92;57.76;98442.22;5113022;28;20170;-68
2021/11/27 05:16:19;;;;;;;20.10;11.97;;;;;;;9.92;57.81;98443.06;5114124;28;20644;-68
2021/11/27 05:18:45;;;;;;;15.77;11.00;;;;;;;10.13;57.22;98444.81;5113879;28;20193;-69
2021/11/27 05:21:10;;;;;;;21.83;11.63;;;;;;;9.01;58.96;98443.84;5112756;28;20177;-69
2021/11/27 05:23:36;;;;;;;19.10;11.27;;;;;;;10.17;56.99;98449.75;5114489;28;20238;-68
2021/11/27 05:26:02;;;;;;;22.13;11.23;;;;;;;9.52;57.62;98436.84;5114242;28;20642;-68
2021/11/27 05:28:27;;;;;;;17.53;11.47;;;;;;;9.21;58.08;98434.16;5112662;28;20218;-69
2021/11/27 05:30:53;;;;;;;18.97;10.73;;;;;;;9.61;57.72;98441.38;5114587;28;20250;-69
2021/11/27 05:33:23;;;;;;;19.57;10.63;;;;;;;9.81;56.97;98442.31;5096351;28;20494;-68
2021/11/27 05:35:50;;;;;;;20.23;12.03;;;;;;;10.24;56.60;98444.72;5113869;28;20162;-68
2021/11/27 05:38:15;;;;;;;21.70;11.97;;;;;;;10.17;56.85;98441.75;5117055;28;20238;-67
2021/11/27 05:40:41;;;;;;;19.63;11.73;;;;;;;10.68;55.56;98435.38;5117445;28;20177;-68
2021/11/27 05:43:06;;;;;;;25.70;11.37;;;;;;;9.45;57.57;98446.34;5118298;28;20178;-68
2021/11/27 05:45:31;;;;;;;22.97;11.17;;;;;;;9.09;58.77;98444.03;5117997;28;20230;-69
2021/11/27 05:47:59;;;;;;;24.30;12.37;;;;;;;9.35;58.84;98451.63;5117593;28;20555;-68
2021/11/27 05:50:25;;;;;;;19.67;11.27;;;;;;;9.55;58.63;98452.56;5116949;28;20200;-68
2021/11/27 05:52:53;;;;;;;17.17;11.47;;;;;;;8.89;58.82;98434.19;5118273;28;20678;-68
2021/11/27 05:55:18;;;;;;;21.87;11.97;;;;;;;9.78;58.12;98443.44;5119906;28;20170;-69
2021/11/27 05:57:44;;;;;;;23.30;11.60;;;;;;;9.69;57.87;98437.09;5117204;28;20326;-68
2021/11/27 06:00:10;;;;;;;16.83;10.90;;;;;;;9.44;57.89;98439.34;5119128;28;20173;-73
2021/11/27 06:02:35;;;;;;;22.27;10.60;;;;;;;9.36;57.65;98453.31;5117505;28;20165;-68
2021/11/27 06:05:00;;;;;;;19.80;10.50;;;;;;;10.06;56.70;98457.84;5120420;28;20508;-68
2021/11/27 06:07:26;;;;;;;19.17;11.00;;;;;;;9.46;57.87;98459.53;5119279;28;20213;-68
2021/11/27 06:09:51;;;;;;;24.50;12.13;;;;;;;10.24;56.70;98456.25;5118506;28;20223;-69
2021/11/27 06:12:16;;;;;;;19.27;10.77;;;;;;;10.33;55.62;98452.75;5117530;28;20262;-68
2021/11/27 06:14:41;;;;;;;17.13;10.40;;;;;;;10.16;55.51;98458.72;5122656;28;20169;-68
2021/11/27 06:17:07;;;;;;;19.80;10.60;;;;;;;10.35;55.92;98455.28;5118313;28;20169;-69
2021/11/27 06:19:32;;;;;;;21.57;10.50;;;;;;;10.31;56.06;98457.38;5120018;28;20174;-69
2021/11/27 06:21:57;;;;;;;17.07;10.43;;;;;;;9.99;55.58;98456.69;5121127;28;20165;-68
2021/11/27 06:24:23;;;;;;;20.30;11.80;;;;;;;9.29;57.65;98462.78;5121847;28;20178;-67
2021/11/27 06:26:48;;;;;;;18.23;10.73;;;;;;;9.43;58.19;98458.94;5123478;28;20203;-68
2021/11/27 06:29:13;;;;;;;20.90;10.37;;;;;;;8.65;59.16;98460.19;5122817;28;20207;-69
2021/11/27 06:31:39;;;;;;;18.53;11.33;;;;;;;8.95;59.75;98455.00;5117997;28;20197;-68
2021/11/27 06:34:04;;;;;;;22.17;10.63;;;;;;;8.12;60.20;98444.94;5118689;28;20173;-68
2021/11/27 06:36:30;;;;;;;20.63;11.47;;;;;;;8.70;59.99;98463.31;5122722;28;20177;-68
2021/11/27 06:38:55;;;;;;;20.70;11.27;;;;;;;8.55;59.99;98456.59;5120246;28;20185;-68
2021/11/27 06:41:21;;;;;;;19.23;11.00;;;;;;;8.71;59.58;98452.56;5119046;28;20173;-68
2021/11/27 06:43:46;;;;;;;18.63;10.13;;;;;;;9.07;59.27;98464.59;5117939;28;20176;-68
2021/11/27 06:46:11;;;;;;;18.93;11.53;;;;;;;9.15;58.72;98461.28;5116879;28;20202;-68
2021/11/27 06:48:37;;;;;;;19.57;11.03;;;;;;;9.83;57.01;98451.03;5119044;28;20190;-69
2021/11/27 06:51:02;;;;;;;18.83;10.70;;;;;;;9.39;57.75;98459.22;5122665;28;20221;-68
2021/11/27 06:53:27;;;;;;;20.40;11.43;;;;;;;8.98;58.93;98467.19;5124333;28;20209;-67
2021/11/27 06:55:53;;;;;;;21.67;11.23;;;;;;;8.85;59.28;98479.81;5123404;28;20227;-68
2021/11/27 06:58:18;;;;;;;20.57;12.10;;;;;;;8.91;59.34;98474.81;5121940;28;20192;-67
2021/11/27 07:00:43;;;;;;;22.60;11.63;;;;;;;8.84;59.20;98478.13;5123650;28;20178;-68
2021/11/27 07:03:09;;;;;;;24.00;12.07;;;;;;;8.86;59.55;98477.03;5121516;28;20169;-67
2021/11/27 07:05:34;;;;;;;18.77;11.53;;;;;;;9.13;57.96;98465.06;5122539;28;20191;-68
2021/11/27 07:07:59;;;;;;;20.47;11.10;;;;;;;8.71;58.16;98470.31;5122091;28;20209;-69
2021/11/27 07:10:25;;;;;;;21.90;12.20;;;;;;;9.20;58.17;98476.88;5122448;28;20174;-68
2021/11/27 07:12:53;;;;;;;19.70;11.83;;;;;;;9.46;57.75;98482.66;5121261;28;20675;-68
2021/11/27 07:15:18;;;;;;;22.00;11.20;;;;;;;9.81;56.56;98479.63;5121953;28;20651;-69
2021/11/27 07:17:44;;;;;;;16.80;11.13;;;;;;;8.60;58.87;98495.16;5119449;28;20227;-68
2021/11/27 07:20:09;;;;;;;19.30;11.43;;;;;;;7.47;62.06;98506.75;5124455;28;20162;-68
2021/11/27 07:22:35;;;;;;;19.63;11.20;;;;;;;8.50;60.73;98512.78;5124892;28;20174;-69
2021/11/27 07:25:00;;;;;;;25.47;10.87;;;;;;;8.78;58.42;98498.94;5125439;28;20176;-68
2021/11/27 07:27:26;;;;;;;22.03;11.40;;;;;;;8.93;58.09;98501.31;5122559;28;20197;-67
2021/11/27 07:29:51;;;;;;;22.50;11.10;;;;;;;9.00;58.08;98499.84;5123974;28;20180;-69
2021/11/27 07:32:16;;;;;;;24.50;11.90;;;;;;;9.36;58.55;98512.72;5124891;28;20201;-68
2021/11/27 07:34:42;;;;;;;23.50;11.63;;;;;;;9.45;57.38;98507.59;5124158;28;20177;-67
2021/11/27 07:37:07;;;;;;;24.70;13.23;;;;;;;8.60;59.67;98516.41;5123952;28;20642;-68
2021/11/27 07:39:32;;;;;;;27.93;12.53;;;;;;;8.90;58.64;98514.84;5123879;28;20231;-70
2021/11/27 07:41:58;;;;;;;22.00;12.87;;;;;;;9.29;58.80;98516.88;5125049;28;20189;-69
2021/11/27 07:44:23;;;;;;;25.37;13.33;;;;;;;10.34;56.48;98525.56;5125058;28;20181;-68
2021/11/27 07:46:53;;;;;;;22.90;13.40;;;;;;;9.33;58.01;98522.78;5123237;28;20176;-67
2021/11/27 07:49:19;;;;;;;22.17;12.10;;;;;;;8.83;60.06;98533.13;5123335;28;20182;-70
2021/11/27 07:51:45;;;;;;;24.47;13.30;;;;;;;8.97;59.48;98535.53;5123936;28;20189;-69
2021/11/27 07:54:10;;;;;;;28.33;12.90;;;;;;;8.98;59.55;98529.22;5121829;28;20180;-69
2021/11/27 07:56:35;;;;;;;22.77;12.97;;;;;;;9.65;57.69;98526.19;5123747;28;20174;-68
2021/11/27 07:59:01;;;;;;;23.57;13.40;;;;;;;9.90;57.25;98532.09;5123205;28;20216;-69
2021/11/27 08:01:26;;;;;;;24.70;12.37;;;;;;;9.70;58.42;98548.00;5124126;28;20172;-69
2021/11/27 08:03:52;;;;;;;23.90;12.73;;;;;;;10.61;54.77;98530.28;5125668;28;20623;-68
2021/11/27 08:06:17;;;;;;;22.00;12.97;;;;;;;10.84;55.31;98539.75;5118920;28;20174;-68
2021/11/27 08:08:42;;;;;;;25.50;13.03;;;;;;;11.04;54.38;98526.41;5122683;28;20210;-68
2021/11/27 08:11:09;;;;;;;27.30;13.67;;;;;;;10.27;55.99;98543.94;5123063;28;20251;-69
2021/11/27 08:13:35;;;;;;;25.70;13.27;;;;;;;10.05;55.38;98530.78;5123811;28;20211;-69
2021/11/27 08:16:00;;;;;;;23.53;13.13;;;;;;;10.65;55.43;98545.03;5123868;28;20174;-70
2021/11/27 08:18:26;;;;;;;23.30;13.13;;;;;;;11.89;52.97;98523.81;5122867;28;20197;-69
2021/11/27 08:20:52;;;;;;;24.17;13.07;;;;;;;10.32;56.22;98528.38;5120827;28;20171;-69
2021/11/27 08:23:18;;;;;;;21.00;11.93;;;;;;;11.13;55.16;98531.75;5123081;28;20171;-69
2021/11/27 08:25:44;;;;;;;21.53;12.33;;;;;;;11.46;54.42;98530.47;5122005;28;20257;-69
2021/11/27 08:28:09;;;;;;;23.90;13.27;;;;;;;10.12;56.42;98536.44;5123516;28;20183;-69
2021/11/27 08:30:34;;;;;;;24.17;12.07;;;;;;;11.17;54.62;98521.66;5122787;28;20174;-69
2021/11/27 08:33:00;;;;;;;24.53;13.17;;;;;;;10.60;55.58;98531.28;5123895;28;20189;-69
2021/11/27 08:35:25;;;;;;;27.37;13.33;;;;;;;9.90;56.68;98526.78;5123784;28;20198;-68
2021/11/27 08:37:50;;;;;;;20.13;12.17;;;;;;;10.09;57.16;98537.53;5124265;28;20201;-68
2021/11/27 08:40:16;;;;;;;21.33;12.77;;;;;;;11.14;54.45;98530.78;5123318;28;20171;-69
2021/11/27 08:42:42;;;;;;;21.90;13.03;;;;;;;11.48;53.68;98536.50;5120657;28;20296;-68
2021/11/27 08:45:08;;;;;;;30.20;13.03;;;;;;;12.50;52.34;98542.00;5118973;28;20226;-69
2021/11/27 08:47:33;;;;;;;24.87;13.23;;;;;;;11.30;53.33;98535.56;5121211;28;20210;-69
2021/11/27 08:50:00;;;;;;;23.87;13.40;;;;;;;11.43;53.56;98546.78;5122589;28;20175;-69
2021/11/27 08:52:25;;;;;;;20.87;12.27;;;;;;;11.56;53.30;98543.84;5122002;28;20255;-69
2021/11/27 08:54:51;;;;;;;19.47;11.30;;;;;;;11.27;53.05;98536.69;5122916;28;20209;-68
2021/11/27 08:57:16;;;;;;;21.30;11.83;;;;;;;12.44;51.23;98538.09;5121096;28;20196;-67
2021/11/27 08:59:42;;;;;;;17.57;11.27;;;;;;;10.93;54.05;98556.75;5119887;28;20172;-68
2021/11/27 09:02:07;;;;;;;20.97;12.20;;;;;;;11.48;53.00;98552.53;5120817;28;20168;-67
2021/11/27 09:04:33;;;;;;;21.63;11.23;;;;;;;10.56;54.04;98557.38;5121974;28;20171;-68
2021/11/27 09:06:59;;;;;;;18.83;11.73;;;;;;;9.99;56.14;98563.28;5122263;28;20210;-69
2021/11/27 09:09:25;;;;;;;25.17;11.97;;;;;;;11.99;52.41;98547.88;5106745;22;20236;-69
2021/11/27 09:11:50;;;;;;;19.83;11.57;;;;;;;12.53;51.47;98547.06;5054316;28;20241;-69
2021/11/27 09:14:17;;;;;;;21.93;11.77;;;;;;;12.35;51.75;98556.88;5039403;28;20196;-69
2021/11/27 09:16:43;;;;;;;22.67;12.40;;;;;;;11.10;53.66;98553.38;5056160;28;20230;-70
2021/11/27 09:19:08;;;;;;;19.53;11.53;;;;;;;11.30;53.03;98538.22;5055515;28;20210;-68
2021/11/27 09:21:34;;;;;;;22.67;12.20;;;;;;;11.00;53.78;98549.03;5041400;28;20186;-68
2021/11/27 09:24:01;;;;;;;24.73;12.93;;;;;;;11.44;53.44;98540.47;5042148;28;20209;-69
2021/11/27 09:26:26;;;;;;;25.37;11.80;;;;;;;10.92;54.90;98555.06;5058772;28;20180;-69
2021/11/27 09:28:52;;;;;;;20.80;11.30;;;;;;;12.52;50.63;98540.88;5040141;28;20201;-70
2021/11/27 09:31:17;;;;;;;20.17;11.63;;;;;;;12.76;51.05;98553.72;5056040;28;20194;-69
2021/11/27 09:33:43;;;;;;;19.57;11.87;;;;;;;12.02;51.40;98543.06;5055556;28;20186;-71
2021/11/27 09:36:11;;;;;;;23.00;12.47;;;;;;;13.00;50.53;98555.78;5039128;28;20201;-69
2021/11/27 09:38:39;;;;;;;21.77;12.70;;;;;;;12.57;52.03;98569.84;5055953;28;20218;-69
2021/11/27 09:41:18;;;;;;;26.40;13.20;;;;;;;11.94;53.12;98556.31;5039505;28;20200;-68
2021/11/27 09:43:51;;;;;;;22.53;12.10;;;;;;;12.47;51.73;98566.41;5055538;28;20220;-70
2021/11/27 09:46:22;;;;;;;24.00;13.00;;;;;;;13.19;50.60;98559.38;5039998;28;20175;-69
2021/11/27 09:48:51;;;;;;;22.60;12.67;;;;;;;11.21;53.92;98563.13;5039337;28;20201;-69
2021/11/27 09:51:22;;;;;;;24.50;13.13;;;;;;;12.23;52.99;98574.94;5040124;28;20285;-69
2021/11/27 09:53:48;;;;;;;23.43;13.17;;;;;;;12.52;51.56;98572.97;5039430;28;20210;-69
2021/11/27 09:56:16;;;;;;;26.97;13.27;;;;;;;12.97;51.40;98582.88;5055331;28;20200;-70
2021/11/27 09:58:44;;;;;;;24.33;13.57;;;;;;;13.64;50.31;98570.00;5039270;28;20206;-71
2021/11/27 10:01:18;;;;;;;26.43;12.93;;;;;;;12.18;52.06;98564.66;5039301;28;20724;-69
2021/11/27 10:03:52;;;;;;;25.07;13.37;;;;;;;11.07;54.57;98579.53;5040013;28;20165;-69
2021/11/27 10:06:19;;;;;;;22.23;13.87;;;;;;;11.37;54.23;98558.03;5040522;28;20649;-69
2021/11/27 10:08:44;;;;;;;23.80;13.27;;;;;;;12.19;53.82;98577.06;5038782;28;20213;-68
2021/11/27 10:11:10;;;;;;;25.53;14.13;;;;;;;11.46;53.33;98567.88;5039753;28;20216;-68
2021/11/27 10:13:36;;;;;;;24.83;14.57;;;;;;;11.29;55.57;98579.28;5039486;28;20651;-69
2021/11/27 10:16:10;;;;;;;24.57;14.50;;;;;;;11.85;53.42;98565.19;5056107;28;20214;-69
2021/11/27 10:18:41;;;;;;;24.63;13.87;;;;;;;11.87;53.93;98582.75;5040581;28;20197;-69
2021/11/27 10:21:22;;;;;;;27.73;15.73;;;;;;;12.13;54.19;98577.63;5041956;28;20259;-69
2021/11/27 10:23:49;;;;;;;25.60;14.70;;;;;;;11.81;54.62;98579.81;5061326;28;20196;-68
2021/11/27 10:26:36;;;;;;;27.13;15.03;;;;;;;11.62;55.08;98574.50;5049186;28;20191;-70
2021/11/27 10:29:26;;;;;;;23.23;14.43;;;;;;;10.67;56.58;98575.09;5049577;28;20213;-69
2021/11/27 10:32:16;;;;;;;27.17;15.73;;;;;;;12.00;54.65;98573.59;5065714;28;20220;-69
2021/11/27 10:34:59;;;;;;;29.53;15.17;;;;;;;12.81;52.94;98580.03;5046658;28;20169;-69
2021/11/27 10:37:33;;;;;;;27.23;15.40;;;;;;;11.56;55.66;98579.41;5045955;28;20178;-68
2021/11/27 10:40:09;;;;;;;28.70;15.37;;;;;;;10.39;56.43;98574.00;5044841;28;20233;-68
2021/11/27 10:42:36;;;;;;;24.77;15.80;;;;;;;11.22;56.63;98581.66;5043750;28;20224;-68
2021/11/27 10:45:26;;;;;;;28.37;16.57;;;;;;;10.71;56.99;98583.66;5059275;28;20185;-68
2021/11/27 10:48:11;;;;;;;28.00;15.37;;;;;;;9.14;60.32;98573.19;5041734;28;20203;-69
2021/11/27 10:50:47;;;;;;;28.10;15.03;;;;;;;10.58;56.29;98558.09;5057609;28;20277;-70
2021/11/27 10:53:15;;;;;;;25.70;15.93;;;;;;;10.44;56.81;98570.97;5058424;28;20185;-70
2021/11/27 10:55:40;;;;;;;30.67;16.13;;;;;;;10.48;57.52;98567.03;5057930;28;20213;-67
2021/11/27 10:58:08;;;;;;;30.50;16.40;;;;;;;11.83;55.71;98567.16;5058269;28;20233;-70
2021/11/27 11:00:46;;;;;;;30.40;16.20;;;;;;;11.11;56.07;98563.09;5058627;28;20185;-69
2021/11/27 11:03:31;;;;;;;33.07;17.70;;;;;;;12.37;53.72;98565.59;5045099;28;20655;-70
2021/11/27 11:05:58;;;;;;;30.70;16.47;;;;;;;10.92;56.58;98574.59;5045338;28;20216;-70
2021/11/27 11:08:38;;;;;;;29.43;15.63;;;;;;;11.92;54.49;98570.81;5063121;28;20213;-69
2021/11/27 11:11:24;;;;;;;31.80;16.40;;;;;;;11.95;53.73;98575.88;5048396;28;20285;-70
2021/11/27 11:13:54;;;;;;;36.03;17.00;;;;;;;11.81;54.90;98577.16;5062538;28;20184;-69
2021/11/27 11:16:23;;;;;;;30.00;16.23;;;;;;;11.43;54.77;98565.47;5062000;28;20213;-70
2021/11/27 11:18:52;;;;;;;30.27;16.60;;;;;;;9.96;58.37;98575.03;5061098;28;20202;-69
2021/11/27 11:21:18;;;;;;;36.97;17.63;;;;;;;10.75;57.09;98590.41;5061613;28;20235;-69